createdAt,value
2018-12-20T00:00:09.387Z,99831.83
2018-12-20T00:02:35.770Z,99828.16
2018-12-20T00:05:01.768Z,99830.30
2018-12-20T00:07:27.888Z,99825.37
2018-12-20T00:09:53.975Z,99837.16
2018-12-20T00:12:19.920Z,99832.87
2018-12-20T00:14:45.865Z,99830.14
2018-12-20T00:17:12.041Z,99825.00
2018-12-20T00:19:38.193Z,99824.42
2018-12-20T00:22:04.183Z,99824.55
2018-12-20T00:24:30.117Z,99832.84
2018-12-20T00:26:56.285Z,99833.07
2018-12-20T00:29:22.231Z,99833.78
2018-12-20T00:31:48.259Z,99829.38
2018-12-20T00:34:14.387Z,99827.57
2018-12-20T00:36:40.519Z,99822.27
2018-12-20T00:39:06.529Z,99825.28
2018-12-20T00:41:32.467Z,99828.46
2018-12-20T00:43:58.412Z,99823.02
2018-12-20T00:46:24.420Z,99828.61
2018-12-20T00:48:50.472Z,99823.92
2018-12-20T00:51:16.522Z,99830.80
2018-12-20T00:53:42.484Z,99831.17
2018-12-20T00:56:08.526Z,99829.42
2018-12-20T00:58:34.523Z,99826.13
2018-12-20T01:01:00.524Z,99828.58
2018-12-20T01:03:26.534Z,99830.14
2018-12-20T01:05:52.693Z,99834.14
2018-12-20T01:08:18.787Z,99835.73
2018-12-20T01:10:44.845Z,99836.66
2018-12-20T01:13:10.884Z,99836.99
2018-12-20T01:15:36.859Z,99837.42
2018-12-20T01:18:02.918Z,99839.03
2018-12-20T01:20:29.034Z,99830.49
2018-12-20T01:22:55.126Z,99833.87
2018-12-20T01:25:21.145Z,99845.48
2018-12-20T01:27:47.274Z,99842.53
2018-12-20T01:30:13.318Z,99836.62
2018-12-20T01:32:39.320Z,99845.39
2018-12-20T01:35:05.392Z,99843.28
2018-12-20T01:37:33.524Z,99845.25
2018-12-20T01:39:59.492Z,99846.22
2018-12-20T01:42:25.507Z,99848.95
2018-12-20T01:44:53.606Z,99842.27
2018-12-20T01:47:19.583Z,99836.84
2018-12-20T01:49:45.673Z,99835.59
2018-12-20T01:52:11.750Z,99845.84
2018-12-20T01:54:37.914Z,99839.30
2018-12-20T01:57:03.978Z,99847.77
2018-12-20T01:59:30.091Z,99840.66
2018-12-20T02:01:56.300Z,99843.13
2018-12-20T02:04:22.381Z,99841.81
2018-12-20T02:06:48.414Z,99846.19
2018-12-20T02:09:14.414Z,99845.17
2018-12-20T02:11:40.501Z,99842.56
2018-12-20T02:14:06.723Z,99836.19
2018-12-20T02:16:33.102Z,99832.16
2018-12-20T02:18:59.251Z,99840.06
2018-12-20T02:21:25.296Z,99831.54
2018-12-20T02:23:51.420Z,99840.17
2018-12-20T02:26:17.451Z,99843.73
2018-12-20T02:28:43.542Z,99833.83
2018-12-20T02:31:09.579Z,99833.58
2018-12-20T02:33:35.559Z,99833.13
2018-12-20T02:36:01.676Z,99839.22
2018-12-20T02:38:27.848Z,99829.00
2018-12-20T02:40:53.875Z,99828.42
2018-12-20T02:43:19.966Z,99825.92
2018-12-20T02:45:46.069Z,99833.17
2018-12-20T02:48:12.119Z,99830.75
2018-12-20T02:50:38.165Z,99830.45
2018-12-20T02:53:04.117Z,99834.12
2018-12-20T02:55:30.064Z,99823.52
2018-12-20T02:57:56.065Z,99813.92
2018-12-20T03:00:22.275Z,99813.53
2018-12-20T03:02:48.725Z,99813.13
2018-12-20T03:05:14.857Z,99808.13
2018-12-20T03:07:40.937Z,99806.06
2018-12-20T03:10:07.208Z,99816.63
2018-12-20T03:12:33.295Z,99809.55
2018-12-20T03:14:59.558Z,99806.23
2018-12-20T03:17:25.545Z,99809.94
2018-12-20T03:19:51.691Z,99806.02
2018-12-20T03:22:17.870Z,99813.72
2018-12-20T03:24:44.207Z,99808.06
2018-12-20T03:27:10.436Z,99805.88
2018-12-20T03:29:36.447Z,99808.06
2018-12-20T03:32:02.684Z,99808.65
2018-12-20T03:34:28.824Z,99799.84
2018-12-20T03:36:55.133Z,99796.84
2018-12-20T03:39:21.331Z,99804.27
2018-12-20T03:41:47.392Z,99802.48
2018-12-20T03:44:13.451Z,99800.80
2018-12-20T03:46:39.408Z,99797.25
2018-12-20T03:49:05.487Z,99797.95
2018-12-20T03:51:31.735Z,99802.51
2018-12-20T03:53:57.961Z,99795.83
2018-12-20T03:56:24.045Z,99798.73
2018-12-20T03:58:50.203Z,99806.51
2018-12-20T04:01:16.272Z,99805.17
2018-12-20T04:03:42.295Z,99796.98
2018-12-20T04:06:08.343Z,99796.91
2018-12-20T04:08:34.363Z,99796.59
2018-12-20T04:11:00.472Z,99791.41
2018-12-20T04:13:26.747Z,99789.17
2018-12-20T04:15:52.989Z,99784.16
2018-12-20T04:18:19.085Z,99783.14
2018-12-20T04:20:45.175Z,99778.19
2018-12-20T04:23:11.111Z,99770.81
2018-12-20T04:25:37.146Z,99779.45
2018-12-20T04:28:03.362Z,99779.32
2018-12-20T04:30:29.419Z,99776.30
2018-12-20T04:32:55.378Z,99787.74
2018-12-20T04:35:21.372Z,99776.23
2018-12-20T04:37:47.335Z,99779.49
2018-12-20T04:40:13.313Z,99783.65
2018-12-20T04:42:39.722Z,99772.86
2018-12-20T04:45:05.861Z,99775.52
2018-12-20T04:47:31.926Z,99778.34
2018-12-20T04:49:58.062Z,99772.52
2018-12-20T04:52:24.225Z,99768.00
2018-12-20T04:54:50.280Z,99763.38
2018-12-20T04:57:16.342Z,99766.27
2018-12-20T04:59:42.893Z,99763.58
2018-12-20T05:02:09.069Z,99766.27
2018-12-20T05:04:35.174Z,99767.29
2018-12-20T05:07:01.254Z,99763.58
2018-12-20T05:09:27.288Z,99760.14
2018-12-20T05:11:53.272Z,99764.31
2018-12-20T05:14:19.295Z,99768.80
2018-12-20T05:16:45.661Z,99764.83
2018-12-20T05:19:11.799Z,99767.00
2018-12-20T05:21:37.809Z,99768.59
2018-12-20T05:24:03.772Z,99763.31
2018-12-20T05:26:29.808Z,99771.23
2018-12-20T05:28:55.974Z,99774.97
2018-12-20T05:31:22.106Z,99778.25
2018-12-20T05:33:48.108Z,99781.55
2018-12-20T05:36:14.153Z,99784.62
2018-12-20T05:38:40.214Z,99783.27
2018-12-20T05:41:06.276Z,99785.80
2018-12-20T05:43:32.311Z,99795.44
2018-12-20T05:46:04.523Z,99797.53
2018-12-20T05:48:26.293Z,99809.86
2018-12-20T05:50:52.328Z,99814.83
2018-12-20T05:53:18.444Z,99813.30
2018-12-20T05:55:44.481Z,99800.61
2018-12-20T05:58:10.628Z,99795.41
2018-12-20T06:00:37.022Z,99792.73
2018-12-20T06:03:03.103Z,99799.76
2018-12-20T06:05:29.177Z,99788.16
2018-12-20T06:10:28.194Z,99784.89
2018-12-20T06:12:54.397Z,99785.20
2018-12-20T06:15:20.591Z,99780.38
2018-12-20T06:17:46.548Z,99783.48
2018-12-20T06:20:12.514Z,99783.50
2018-12-20T06:22:38.532Z,99783.84
2018-12-20T06:25:04.484Z,99789.27
2018-12-20T06:27:30.417Z,99790.50
2018-12-20T06:29:56.428Z,99792.58
2018-12-20T06:32:22.382Z,99787.89
2018-12-20T06:34:48.343Z,99789.30
2018-12-20T06:37:14.365Z,99763.55
2018-12-20T06:39:40.394Z,99786.03
2018-12-20T06:42:06.370Z,99788.57
2018-12-20T06:44:32.332Z,99786.11
2018-12-20T06:46:58.350Z,99792.63
2018-12-20T06:49:24.285Z,99788.66
2018-12-20T06:51:50.903Z,99780.34
2018-12-20T06:54:16.867Z,99775.23
2018-12-20T06:56:42.837Z,99784.96
2018-12-20T06:59:08.804Z,99785.53
2018-12-20T07:01:34.765Z,99787.09
2018-12-20T07:04:00.749Z,99785.67
2018-12-20T07:06:26.732Z,99793.70
2018-12-20T07:08:52.673Z,99784.23
2018-12-20T07:11:18.643Z,99789.61
2018-12-20T07:13:44.590Z,99791.61
2018-12-20T07:16:10.571Z,99797.91
2018-12-20T07:18:36.516Z,99794.17
2018-12-20T07:21:02.450Z,99796.92
2018-12-20T07:23:28.398Z,99796.41
2018-12-20T07:25:54.361Z,99798.06
2018-12-20T07:28:20.324Z,99802.12
2018-12-20T07:30:46.280Z,99796.97
2018-12-20T07:33:12.487Z,99796.69
2018-12-20T07:35:38.438Z,99797.99
2018-12-20T07:38:04.404Z,99798.22
2018-12-20T07:40:30.340Z,99801.34
2018-12-20T07:42:56.265Z,99795.58
2018-12-20T07:45:22.217Z,99799.26
2018-12-20T07:47:48.186Z,99809.85
2018-12-20T07:50:14.135Z,99804.84
2018-12-20T07:52:40.061Z,99804.02
2018-12-20T07:55:05.997Z,99804.12
2018-12-20T07:57:31.933Z,99796.65
2018-12-20T07:59:57.895Z,99810.87
2018-12-20T08:02:23.879Z,99798.58
2018-12-20T08:04:49.844Z,99798.86
2018-12-20T08:07:15.825Z,99813.18
2018-12-20T08:09:41.775Z,99809.11
2018-12-20T08:12:07.749Z,99807.98
2018-12-20T08:14:33.709Z,99810.48
2018-12-20T08:16:59.711Z,99809.85
2018-12-20T08:19:25.669Z,99806.76
2018-12-20T08:24:24.042Z,99806.34
2018-12-20T08:26:50.061Z,99813.33
2018-12-20T08:29:15.996Z,99815.24
2018-12-20T08:31:41.940Z,99819.88
2018-12-20T08:34:07.894Z,99814.90
2018-12-20T08:36:33.837Z,99811.06
2018-12-20T08:38:59.798Z,99821.22
2018-12-20T08:41:25.731Z,99818.48
2018-12-20T08:43:51.674Z,99819.42
2018-12-20T08:46:17.632Z,99817.52
2018-12-20T08:48:43.568Z,99819.53
2018-12-20T08:51:09.535Z,99820.45
2018-12-20T08:53:35.494Z,99820.80
2018-12-20T08:56:01.455Z,99824.11
2018-12-20T08:58:27.408Z,99826.55
2018-12-20T09:00:53.355Z,99824.57
2018-12-20T09:03:19.316Z,99826.96
2018-12-20T09:05:45.272Z,99825.17
2018-12-20T09:08:11.251Z,99827.03
2018-12-20T09:10:37.183Z,99824.99
2018-12-20T09:13:09.579Z,99818.83
2018-12-20T09:15:31.094Z,99825.25
2018-12-20T09:17:57.039Z,99822.64
2018-12-20T09:20:22.995Z,99822.98
2018-12-20T09:22:48.963Z,99826.11
2018-12-20T09:25:14.919Z,99831.06
2018-12-20T09:27:40.855Z,99825.64
2018-12-20T09:30:06.796Z,99825.78
2018-12-20T09:32:32.749Z,99823.39
2018-12-20T09:34:58.690Z,99828.63
2018-12-20T09:37:24.620Z,99823.28
2018-12-20T09:39:50.596Z,99824.00
2018-12-20T09:42:16.532Z,99823.66
2018-12-20T09:44:42.458Z,99822.27
2018-12-20T09:47:11.967Z,99824.27
2018-12-20T09:49:36.404Z,99812.59
2018-12-20T09:52:02.370Z,99801.97
2018-12-20T09:54:28.313Z,99809.58
2018-12-20T09:56:54.275Z,99807.19
2018-12-20T09:59:20.425Z,99801.30
2018-12-20T10:01:46.390Z,99809.08
2018-12-20T10:04:12.332Z,99807.55
2018-12-20T10:06:38.280Z,99807.30
2018-12-20T10:09:04.216Z,99799.19
2018-12-20T10:11:30.182Z,99796.55
2018-12-20T10:13:56.176Z,99797.47
2018-12-20T10:16:22.230Z,99798.54
2018-12-20T10:18:48.315Z,99791.00
2018-12-20T10:21:14.275Z,99791.88
2018-12-20T10:23:40.232Z,99787.80
2018-12-20T10:26:06.189Z,99782.17
2018-12-20T10:28:32.151Z,99778.48
2018-12-20T10:30:58.122Z,99770.80
2018-12-20T10:33:24.085Z,99770.58
2018-12-20T10:35:50.025Z,99771.64
2018-12-20T10:38:16.012Z,99771.55
2018-12-20T10:40:41.980Z,99765.05
2018-12-20T10:43:07.916Z,99759.12
2018-12-20T10:45:33.882Z,99773.19
2018-12-20T10:47:59.821Z,99764.13
2018-12-20T10:50:25.757Z,99761.43
2018-12-20T10:52:51.692Z,99753.73
2018-12-20T10:55:17.632Z,99756.30
2018-12-20T10:57:43.594Z,99747.40
2018-12-20T11:00:09.551Z,99745.58
2018-12-20T11:02:35.500Z,99745.36
2018-12-20T11:05:01.464Z,99743.81
2018-12-20T11:07:27.437Z,99741.92
2018-12-20T11:09:53.381Z,99741.67
2018-12-20T11:12:19.362Z,99745.55
2018-12-20T11:14:45.395Z,99738.08
2018-12-20T11:17:11.362Z,99740.66
2018-12-20T11:19:37.292Z,99732.34
2018-12-20T11:22:03.255Z,99740.00
2018-12-20T11:24:29.211Z,99735.47
2018-12-20T11:26:55.147Z,99736.00
2018-12-20T11:29:21.116Z,99730.06
2018-12-20T11:31:47.098Z,99733.16
2018-12-20T11:34:13.086Z,99729.28
2018-12-20T11:36:39.141Z,99724.21
2018-12-20T11:39:08.542Z,99727.52
2018-12-20T11:41:33.066Z,99725.41
2018-12-20T11:43:59.028Z,99729.41
2018-12-20T11:46:24.999Z,99720.88
2018-12-20T11:48:50.933Z,99717.02
2018-12-20T11:51:16.883Z,99715.40
2018-12-20T11:53:42.837Z,99717.09
2018-12-20T11:56:08.803Z,99720.44
2018-12-20T11:58:34.948Z,99717.23
2018-12-20T12:01:00.919Z,99716.22
2018-12-20T12:03:26.879Z,99710.80
2018-12-20T12:05:52.824Z,99711.13
2018-12-20T12:08:18.790Z,99713.89
2018-12-20T12:10:44.733Z,99706.81
2018-12-20T12:13:10.687Z,99710.91
2018-12-20T12:15:36.652Z,99705.56
2018-12-20T12:18:02.586Z,99714.09
2018-12-20T12:20:28.560Z,99713.65
2018-12-20T12:22:54.512Z,99714.50
2018-12-20T12:25:20.508Z,99716.98
2018-12-20T12:27:46.451Z,99710.73
2018-12-20T12:30:12.456Z,99715.70
2018-12-20T12:32:38.415Z,99704.37
2018-12-20T12:35:04.387Z,99705.72
2018-12-20T12:37:30.340Z,99709.22
2018-12-20T12:39:56.289Z,99716.97
2018-12-20T12:42:22.225Z,99717.35
2018-12-20T12:44:48.164Z,99717.13
2018-12-20T12:47:14.129Z,99722.59
2018-12-20T12:49:40.063Z,99717.79
2018-12-20T12:52:06.008Z,99713.77
2018-12-20T12:54:31.961Z,99716.27
2018-12-20T12:56:57.942Z,99713.73
2018-12-20T12:59:23.960Z,99719.97
2018-12-20T13:01:49.917Z,99726.05
2018-12-20T13:04:15.878Z,99726.19
2018-12-20T13:06:41.817Z,99721.11
2018-12-20T13:09:07.782Z,99724.55
2018-12-20T13:11:33.778Z,99724.78
2018-12-20T13:13:59.714Z,99725.87
2018-12-20T13:16:25.676Z,99720.94
2018-12-20T13:18:51.628Z,99726.59
2018-12-20T13:21:17.577Z,99724.92
2018-12-20T13:23:43.533Z,99727.60
2018-12-20T13:26:09.580Z,99729.53
2018-12-20T13:28:35.716Z,99728.77
2018-12-20T13:31:01.871Z,99718.45
2018-12-20T13:33:28.258Z,99719.52
2018-12-20T13:35:55.078Z,99721.30
2018-12-20T13:38:21.017Z,99729.92
2018-12-20T13:40:47.653Z,99735.32
2018-12-20T13:43:13.596Z,99732.08
2018-12-20T13:45:39.609Z,99726.22
2018-12-20T13:48:05.556Z,99727.02
2018-12-20T13:50:31.508Z,99726.06
2018-12-20T13:52:57.449Z,99735.44
2018-12-20T13:55:23.406Z,99729.41
2018-12-20T13:57:49.367Z,99729.48
2018-12-20T14:00:15.318Z,99725.82
2018-12-20T14:02:41.285Z,99726.05
2018-12-20T14:05:07.241Z,99726.27
2018-12-20T14:07:33.195Z,99728.75
2018-12-20T14:09:59.158Z,99728.55
2018-12-20T14:12:25.115Z,99730.81
2018-12-20T14:14:51.083Z,99735.55
2018-12-20T14:17:17.024Z,99740.22
2018-12-20T14:19:42.957Z,99739.58
2018-12-20T14:22:09.052Z,99733.80
2018-12-20T14:24:35.932Z,99731.91
2018-12-20T14:27:01.893Z,99730.12
2018-12-20T14:29:27.860Z,99721.06
2018-12-20T14:31:54.383Z,99735.78
2018-12-20T14:34:20.362Z,99738.25
2018-12-20T14:36:46.363Z,99729.31
2018-12-20T14:39:12.407Z,99732.86
2018-12-20T14:41:38.374Z,99723.23
2018-12-20T14:44:04.328Z,99727.62
2018-12-20T14:46:30.282Z,99732.16
2018-12-20T14:48:56.226Z,99730.30
2018-12-20T14:51:22.204Z,99732.81
2018-12-20T14:53:48.136Z,99737.75
2018-12-20T14:56:14.100Z,99734.30
2018-12-20T14:58:40.066Z,99737.56
2018-12-20T15:01:11.659Z,99733.93
2018-12-20T15:03:37.592Z,99730.52
2018-12-20T15:06:03.587Z,99732.72
2018-12-20T15:08:30.578Z,99735.70
2018-12-20T15:10:56.580Z,99741.91
2018-12-20T15:13:22.548Z,99741.37
2018-12-20T15:15:48.485Z,99743.19
2018-12-20T15:18:14.459Z,99746.73
2018-12-20T15:20:40.991Z,99745.78
2018-12-20T15:23:07.420Z,99746.34
2018-12-20T15:25:33.365Z,99749.57
2018-12-20T15:27:59.349Z,99753.48
2018-12-20T15:30:25.981Z,99753.22
2018-12-20T15:32:52.031Z,99746.34
2018-12-20T15:35:18.009Z,99749.53
2018-12-20T15:37:43.960Z,99748.23
2018-12-20T15:40:10.008Z,99747.95
2018-12-20T15:42:36.028Z,99756.10
2018-12-20T15:45:01.970Z,99760.20
2018-12-20T15:47:27.953Z,99760.20
2018-12-20T15:49:53.919Z,99758.98
2018-12-20T15:52:19.919Z,99764.62
2018-12-20T15:54:45.869Z,99764.56
2018-12-20T15:57:12.572Z,99766.30
2018-12-20T15:59:38.524Z,99766.41
2018-12-20T16:02:04.504Z,99763.02
2018-12-20T16:04:30.447Z,99770.60
2018-12-20T16:06:56.518Z,99771.09
2018-12-20T16:09:22.480Z,99777.06
2018-12-20T16:11:50.148Z,99775.81
2018-12-20T16:14:17.841Z,99770.25
2018-12-20T16:16:43.772Z,99763.89
2018-12-20T16:19:09.744Z,99766.82
2018-12-20T16:21:35.736Z,99774.39
2018-12-20T16:24:02.729Z,99774.83
2018-12-20T16:26:28.708Z,99776.92
2018-12-20T16:28:54.666Z,99781.16
2018-12-20T16:31:20.638Z,99782.84
2018-12-20T16:33:46.627Z,99776.55
2018-12-20T16:36:12.596Z,99787.08
2018-12-20T16:38:38.600Z,99784.11
2018-12-20T16:41:04.569Z,99782.97
2018-12-20T16:43:30.698Z,99790.56
2018-12-20T16:45:56.686Z,99784.09
2018-12-20T16:48:22.666Z,99788.70
2018-12-20T16:50:48.648Z,99788.71
2018-12-20T16:53:14.643Z,99786.58
2018-12-20T16:55:40.728Z,99792.05
2018-12-20T16:58:06.734Z,99787.39
2018-12-20T17:00:32.730Z,99791.22
2018-12-20T17:02:58.721Z,99789.42
2018-12-20T17:05:24.872Z,99788.95
2018-12-20T17:07:50.834Z,99790.72
2018-12-20T17:10:16.802Z,99788.61
2018-12-20T17:12:42.740Z,99786.55
2018-12-20T17:15:08.813Z,99792.02
2018-12-20T17:17:34.772Z,99789.45
2018-12-20T17:20:00.727Z,99785.73
2018-12-20T17:22:26.726Z,99780.80
2018-12-20T17:24:52.709Z,99778.84
2018-12-20T17:27:18.701Z,99785.95
2018-12-20T17:29:44.651Z,99788.06
2018-12-20T17:32:10.684Z,99790.17
2018-12-20T17:34:36.931Z,99784.25
2018-12-20T17:37:02.913Z,99790.98
2018-12-20T17:39:28.864Z,99796.91
2018-12-20T17:41:55.694Z,99796.05
2018-12-20T17:44:21.704Z,99793.98
2018-12-20T17:46:47.679Z,99796.91
2018-12-20T17:49:13.951Z,99795.23
2018-12-20T17:51:40.823Z,99791.05
2018-12-20T17:54:06.794Z,99794.41
2018-12-20T17:56:33.840Z,99791.83
2018-12-20T17:59:00.911Z,99789.31
2018-12-20T18:04:02.636Z,99785.55
2018-12-20T18:06:28.628Z,99799.05
2018-12-20T18:08:54.616Z,99791.91
2018-12-20T18:11:20.592Z,99795.31
2018-12-20T18:13:52.485Z,99795.31
2018-12-20T18:16:18.480Z,99799.10
2018-12-20T18:18:44.458Z,99802.86
2018-12-20T18:21:10.414Z,99802.92
2018-12-20T18:23:36.373Z,99811.31
2018-12-20T18:26:02.370Z,99802.87
2018-12-20T18:28:28.318Z,99806.71
2018-12-20T18:30:54.301Z,99812.20
2018-12-20T18:33:20.347Z,99806.34
2018-12-20T18:35:46.358Z,99808.39
2018-12-20T18:38:13.352Z,99805.48
2018-12-20T18:40:39.311Z,99809.28
2018-12-20T18:43:05.310Z,99805.08
2018-12-20T18:45:31.842Z,99814.34
2018-12-20T18:47:59.084Z,99811.39
2018-12-20T18:50:25.661Z,99811.78
2018-12-20T18:52:51.617Z,99810.16
2018-12-20T18:55:17.659Z,99804.63
2018-12-20T18:57:43.655Z,99810.56
2018-12-20T19:00:09.619Z,99805.50
2018-12-20T19:02:35.600Z,99811.81
2018-12-20T19:05:02.134Z,99819.86
2018-12-20T19:07:28.104Z,99815.19
2018-12-20T19:09:54.066Z,99816.42
2018-12-20T19:12:20.021Z,99810.95
2018-12-20T19:14:46.028Z,99807.98
2018-12-20T19:17:11.997Z,99812.66
2018-12-20T19:19:37.977Z,99810.95
2018-12-20T19:22:03.944Z,99817.27
2018-12-20T19:24:31.665Z,99819.77
2018-12-20T19:26:57.737Z,99824.45
2018-12-20T19:29:23.800Z,99818.11
2018-12-20T19:31:49.742Z,99819.35
2018-12-20T19:34:15.686Z,99820.17
2018-12-20T19:36:41.652Z,99818.51
2018-12-20T19:39:07.625Z,99813.84
2018-12-20T19:41:33.658Z,99814.28
2018-12-20T19:43:59.642Z,99813.45
2018-12-20T19:46:25.633Z,99806.28
2018-12-20T19:48:51.587Z,99811.31
2018-12-20T19:51:17.601Z,99807.52
2018-12-20T19:53:43.624Z,99815.95
2018-12-20T19:56:09.612Z,99814.72
2018-12-20T19:58:35.589Z,99817.63
2018-12-20T20:01:01.553Z,99815.58
2018-12-20T20:03:27.499Z,99814.74
2018-12-20T20:05:53.575Z,99819.86
2018-12-20T20:08:19.639Z,99813.47
2018-12-20T20:10:45.644Z,99817.71
2018-12-20T20:13:19.021Z,99813.91
2018-12-20T20:15:39.650Z,99816.42
2018-12-20T20:18:08.817Z,99814.72
2018-12-20T20:20:34.791Z,99819.74
2018-12-20T20:23:00.751Z,99818.90
2018-12-20T20:25:26.757Z,99820.63
2018-12-20T20:27:52.765Z,99823.55
2018-12-20T20:30:18.912Z,99824.02
2018-12-20T20:32:44.889Z,99820.66
2018-12-20T20:35:10.859Z,99821.52
2018-12-20T20:37:36.867Z,99827.81
2018-12-20T20:40:02.906Z,99823.66
2018-12-20T20:42:29.111Z,99816.94
2018-12-20T20:44:55.170Z,99821.99
2018-12-20T20:47:21.163Z,99819.46
2018-12-20T20:49:48.128Z,99822.41
2018-12-20T20:52:14.720Z,99814.89
2018-12-20T20:54:40.748Z,99818.67
2018-12-20T20:57:06.789Z,99813.18
2018-12-20T20:59:32.735Z,99808.13
2018-12-20T21:01:58.774Z,99810.66
2018-12-20T21:04:24.899Z,99815.29
2018-12-20T21:06:50.857Z,99809.77
2018-12-20T21:09:16.922Z,99811.04
2018-12-20T21:11:42.957Z,99812.31
2018-12-20T21:14:08.925Z,99810.61
2018-12-20T21:16:35.026Z,99816.48
2018-12-20T21:19:01.004Z,99818.21
2018-12-20T21:21:27.086Z,99819.06
2018-12-20T21:23:53.052Z,99819.94
2018-12-20T21:26:19.008Z,99821.25
2018-12-20T21:28:44.972Z,99815.41
2018-12-20T21:33:43.142Z,99822.14
2018-12-20T21:36:09.119Z,99824.66
2018-12-20T21:38:35.096Z,99826.34
2018-12-20T21:41:01.051Z,99829.28
2018-12-20T21:43:27.019Z,99833.43
2018-12-20T21:45:53.012Z,99829.64
2018-12-20T21:48:18.967Z,99832.12
2018-12-20T21:50:45.000Z,99828.78
2018-12-20T21:53:12.662Z,99830.91
2018-12-20T21:55:38.624Z,99840.16
2018-12-20T21:58:04.599Z,99830.45
2018-12-20T22:00:30.536Z,99834.28
2018-12-20T22:02:56.487Z,99830.03
2018-12-20T22:05:22.427Z,99834.23
2018-12-20T22:07:48.495Z,99830.44
2018-12-20T22:10:14.519Z,99832.09
2018-12-20T22:12:40.470Z,99835.90
2018-12-20T22:15:06.443Z,99831.25
2018-12-20T22:17:32.408Z,99836.77
2018-12-20T22:19:58.910Z,99835.51
2018-12-20T22:22:24.981Z,99838.42
2018-12-20T22:24:50.933Z,99838.02
2018-12-20T22:27:16.944Z,99836.34
2018-12-20T22:32:15.189Z,99843.09
2018-12-20T22:34:41.121Z,99835.48
2018-12-20T22:37:07.075Z,99838.08
2018-12-20T22:39:33.029Z,99830.50
2018-12-20T22:41:58.996Z,99838.48
2018-12-20T22:44:24.957Z,99832.18
2018-12-20T22:46:50.923Z,99837.63
2018-12-20T22:49:16.909Z,99837.62
2018-12-20T22:51:42.858Z,99839.30
2018-12-20T22:54:08.835Z,99830.90
2018-12-20T22:56:34.795Z,99830.84
2018-12-20T22:59:01.782Z,99828.83
2018-12-20T23:01:27.746Z,99833.44
2018-12-20T23:03:53.717Z,99830.91
2018-12-20T23:06:19.664Z,99830.91
2018-12-20T23:08:45.652Z,99824.18
2018-12-20T23:11:11.588Z,99817.02
2018-12-20T23:13:37.555Z,99821.61
2018-12-20T23:16:03.504Z,99820.80
2018-12-20T23:18:31.491Z,99817.42
2018-12-20T23:21:04.654Z,99811.95
2018-12-20T23:23:25.405Z,99803.11
2018-12-20T23:25:51.361Z,99810.66
2018-12-20T23:28:17.349Z,99802.67
2018-12-20T23:30:43.380Z,99803.53
2018-12-20T23:33:09.360Z,99802.26
2018-12-20T23:35:35.306Z,99802.25
2018-12-20T23:38:01.268Z,99804.34
2018-12-20T23:40:27.204Z,99791.30
2018-12-20T23:42:53.181Z,99792.16
2018-12-20T23:45:19.116Z,99798.88
2018-12-20T23:47:45.072Z,99793.83
2018-12-20T23:50:11.022Z,99797.20
2018-12-20T23:52:36.983Z,99795.54
2018-12-20T23:55:02.936Z,99791.75
2018-12-20T23:57:28.886Z,99787.50
2018-12-20T23:59:54.865Z,99794.20
